sensor_id;sensor_type;location;lat;lon;timestamp;P1;durP1;ratioP1;P2;durP2;ratioP2
4738;SDS011;2383;48.632;10.156;2023-12-20T00:01:33;6.93;;;4.10;;
4738;SDS011;2383;48.632;10.156;2023-12-20T00:05:35;4.70;;;4.00;;
4738;SDS011;2383;48.632;10.156;2023-12-20T00:09:39;4.97;;;3.90;;
4738;SDS011;2383;48.632;10.156;2023-12-20T00:13:43;5.13;;;4.00;;
4738;SDS011;2383;48.632;10.156;2023-12-20T00:17:48;5.27;;;4.20;;
4738;SDS011;2383;48.632;10.156;2023-12-20T00:21:50;8.03;;;4.13;;
4738;SDS011;2383;48.632;10.156;2023-12-20T00:25:52;7.83;;;4.63;;
4738;SDS011;2383;48.632;10.156;2023-12-20T00:29:54;8.10;;;4.70;;
4738;SDS011;2383;48.632;10.156;2023-12-20T00:33:55;7.37;;;4.30;;
4738;SDS011;2383;48.632;10.156;2023-12-20T00:37:58;6.27;;;4.50;;
4738;SDS011;2383;48.632;10.156;2023-12-20T00:42:00;7.23;;;4.73;;
4738;SDS011;2383;48.632;10.156;2023-12-20T00:46:02;5.23;;;4.20;;
4738;SDS011;2383;48.632;10.156;2023-12-20T00:50:05;5.23;;;4.37;;
4738;SDS011;2383;48.632;10.156;2023-12-20T00:54:07;6.87;;;4.40;;
4738;SDS011;2383;48.632;10.156;2023-12-20T00:58:10;5.07;;;4.30;;
4738;SDS011;2383;48.632;10.156;2023-12-20T01:02:12;6.17;;;4.23;;
4738;SDS011;2383;48.632;10.156;2023-12-20T01:06:14;4.77;;;4.00;;
4738;SDS011;2383;48.632;10.156;2023-12-20T01:10:17;5.80;;;3.77;;
4738;SDS011;2383;48.632;10.156;2023-12-20T01:14:19;6.13;;;3.77;;
4738;SDS011;2383;48.632;10.156;2023-12-20T01:18:21;6.37;;;4.00;;
4738;SDS011;2383;48.632;10.156;2023-12-20T01:22:23;5.03;;;3.93;;
4738;SDS011;2383;48.632;10.156;2023-12-20T01:26:25;5.83;;;3.90;;
4738;SDS011;2383;48.632;10.156;2023-12-20T01:30:27;5.43;;;4.10;;
4738;SDS011;2383;48.632;10.156;2023-12-20T01:34:29;5.13;;;3.97;;
4738;SDS011;2383;48.632;10.156;2023-12-20T01:38:31;5.50;;;4.10;;
4738;SDS011;2383;48.632;10.156;2023-12-20T01:42:33;5.33;;;3.80;;
4738;SDS011;2383;48.632;10.156;2023-12-20T01:46:35;5.57;;;3.97;;
4738;SDS011;2383;48.632;10.156;2023-12-20T01:50:37;4.93;;;3.67;;
4738;SDS011;2383;48.632;10.156;2023-12-20T01:54:40;5.97;;;4.10;;
4738;SDS011;2383;48.632;10.156;2023-12-20T01:58:44;4.93;;;3.97;;
4738;SDS011;2383;48.632;10.156;2023-12-20T02:02:47;5.73;;;4.00;;
4738;SDS011;2383;48.632;10.156;2023-12-20T02:06:49;6.27;;;3.50;;
4738;SDS011;2383;48.632;10.156;2023-12-20T02:10:54;4.60;;;3.63;;
4738;SDS011;2383;48.632;10.156;2023-12-20T02:14:57;4.23;;;3.33;;
4738;SDS011;2383;48.632;10.156;2023-12-20T02:18:59;4.60;;;2.90;;
4738;SDS011;2383;48.632;10.156;2023-12-20T02:23:01;3.57;;;3.13;;
4738;SDS011;2383;48.632;10.156;2023-12-20T02:27:03;3.63;;;3.10;;
4738;SDS011;2383;48.632;10.156;2023-12-20T02:31:08;5.20;;;3.50;;
4738;SDS011;2383;48.632;10.156;2023-12-20T02:35:10;4.43;;;3.10;;
4738;SDS011;2383;48.632;10.156;2023-12-20T02:39:12;5.10;;;3.40;;
4738;SDS011;2383;48.632;10.156;2023-12-20T02:43:14;4.43;;;2.97;;
4738;SDS011;2383;48.632;10.156;2023-12-20T02:47:16;3.87;;;2.87;;
4738;SDS011;2383;48.632;10.156;2023-12-20T02:51:18;3.77;;;3.00;;
4738;SDS011;2383;48.632;10.156;2023-12-20T02:55:20;3.23;;;2.90;;
4738;SDS011;2383;48.632;10.156;2023-12-20T02:59:22;3.83;;;3.00;;
4738;SDS011;2383;48.632;10.156;2023-12-20T03:03:24;2.33;;;1.67;;
4738;SDS011;2383;48.632;10.156;2023-12-20T03:07:26;2.47;;;1.90;;
4738;SDS011;2383;48.632;10.156;2023-12-20T03:11:28;4.10;;;2.47;;
4738;SDS011;2383;48.632;10.156;2023-12-20T03:15:30;3.03;;;1.90;;
4738;SDS011;2383;48.632;10.156;2023-12-20T03:19:32;1.43;;;1.13;;
4738;SDS011;2383;48.632;10.156;2023-12-20T03:23:34;0.90;;;0.90;;
4738;SDS011;2383;48.632;10.156;2023-12-20T03:27:37;0.80;;;0.80;;
4738;SDS011;2383;48.632;10.156;2023-12-20T03:31:40;0.90;;;0.90;;
4738;SDS011;2383;48.632;10.156;2023-12-20T03:35:42;1.77;;;0.70;;
4738;SDS011;2383;48.632;10.156;2023-12-20T03:39:44;0.60;;;0.60;;
4738;SDS011;2383;48.632;10.156;2023-12-20T03:43:46;0.63;;;0.60;;
4738;SDS011;2383;48.632;10.156;2023-12-20T03:47:48;0.60;;;0.60;;
4738;SDS011;2383;48.632;10.156;2023-12-20T03:51:51;0.53;;;0.53;;
4738;SDS011;2383;48.632;10.156;2023-12-20T03:55:53;0.50;;;0.50;;
4738;SDS011;2383;48.632;10.156;2023-12-20T03:59:55;0.60;;;0.60;;
4738;SDS011;2383;48.632;10.156;2023-12-20T04:03:57;0.70;;;0.70;;
4738;SDS011;2383;48.632;10.156;2023-12-20T04:08:02;0.83;;;0.60;;
4738;SDS011;2383;48.632;10.156;2023-12-20T04:12:05;1.07;;;0.60;;
4738;SDS011;2383;48.632;10.156;2023-12-20T04:16:07;0.60;;;0.60;;
4738;SDS011;2383;48.632;10.156;2023-12-20T04:20:09;0.77;;;0.70;;
4738;SDS011;2383;48.632;10.156;2023-12-20T04:24:12;0.90;;;0.60;;
4738;SDS011;2383;48.632;10.156;2023-12-20T04:28:14;6.97;;;4.20;;
4738;SDS011;2383;48.632;10.156;2023-12-20T04:32:16;1.03;;;0.97;;
4738;SDS011;2383;48.632;10.156;2023-12-20T04:36:18;1.27;;;1.17;;
4738;SDS011;2383;48.632;10.156;2023-12-20T04:40:20;1.20;;;1.10;;
4738;SDS011;2383;48.632;10.156;2023-12-20T04:44:22;0.87;;;0.87;;
4738;SDS011;2383;48.632;10.156;2023-12-20T04:48:24;1.80;;;0.80;;
4738;SDS011;2383;48.632;10.156;2023-12-20T04:52:26;2.40;;;1.40;;
4738;SDS011;2383;48.632;10.156;2023-12-20T04:56:28;2.87;;;1.27;;
4738;SDS011;2383;48.632;10.156;2023-12-20T05:00:30;1.40;;;1.30;;
4738;SDS011;2383;48.632;10.156;2023-12-20T05:04:32;2.60;;;1.57;;
4738;SDS011;2383;48.632;10.156;2023-12-20T05:08:34;1.00;;;1.00;;
4738;SDS011;2383;48.632;10.156;2023-12-20T05:12:37;1.33;;;1.20;;
4738;SDS011;2383;48.632;10.156;2023-12-20T05:16:39;1.03;;;0.90;;
4738;SDS011;2383;48.632;10.156;2023-12-20T05:20:41;0.90;;;0.90;;
4738;SDS011;2383;48.632;10.156;2023-12-20T05:24:42;1.20;;;1.10;;
4738;SDS011;2383;48.632;10.156;2023-12-20T05:28:45;1.30;;;1.20;;
4738;SDS011;2383;48.632;10.156;2023-12-20T05:32:47;1.43;;;1.00;;
4738;SDS011;2383;48.632;10.156;2023-12-20T05:36:49;1.47;;;1.00;;
4738;SDS011;2383;48.632;10.156;2023-12-20T05:40:51;0.80;;;0.80;;
4738;SDS011;2383;48.632;10.156;2023-12-20T05:44:53;0.90;;;0.90;;
4738;SDS011;2383;48.632;10.156;2023-12-20T05:48:59;1.23;;;1.13;;
4738;SDS011;2383;48.632;10.156;2023-12-20T05:53:01;1.10;;;1.00;;
4738;SDS011;2383;48.632;10.156;2023-12-20T05:57:03;0.70;;;0.70;;
4738;SDS011;2383;48.632;10.156;2023-12-20T06:01:05;0.73;;;0.73;;
4738;SDS011;2383;48.632;10.156;2023-12-20T06:05:07;0.80;;;0.80;;
4738;SDS011;2383;48.632;10.156;2023-12-20T06:09:10;0.80;;;0.80;;
4738;SDS011;2383;48.632;10.156;2023-12-20T06:13:12;0.70;;;0.70;;
4738;SDS011;2383;48.632;10.156;2023-12-20T06:17:15;2.63;;;0.83;;
4738;SDS011;2383;48.632;10.156;2023-12-20T06:21:17;0.60;;;0.60;;
4738;SDS011;2383;48.632;10.156;2023-12-20T06:25:19;0.80;;;0.80;;
4738;SDS011;2383;48.632;10.156;2023-12-20T06:29:21;0.87;;;0.87;;
4738;SDS011;2383;48.632;10.156;2023-12-20T06:33:23;0.87;;;0.83;;
4738;SDS011;2383;48.632;10.156;2023-12-20T06:37:25;0.83;;;0.83;;
4738;SDS011;2383;48.632;10.156;2023-12-20T06:41:27;0.60;;;0.60;;
4738;SDS011;2383;48.632;10.156;2023-12-20T06:45:30;0.60;;;0.60;;
4738;SDS011;2383;48.632;10.156;2023-12-20T06:49:32;0.60;;;0.60;;
4738;SDS011;2383;48.632;10.156;2023-12-20T06:53:34;0.60;;;0.60;;
4738;SDS011;2383;48.632;10.156;2023-12-20T06:57:36;0.70;;;0.70;;
4738;SDS011;2383;48.632;10.156;2023-12-20T07:01:38;0.70;;;0.70;;
4738;SDS011;2383;48.632;10.156;2023-12-20T07:05:40;0.60;;;0.60;;
4738;SDS011;2383;48.632;10.156;2023-12-20T07:09:44;3.70;;;2.80;;
4738;SDS011;2383;48.632;10.156;2023-12-20T07:13:46;2.27;;;1.57;;
4738;SDS011;2383;48.632;10.156;2023-12-20T07:17:48;1.20;;;1.10;;
4738;SDS011;2383;48.632;10.156;2023-12-20T07:21:51;1.60;;;0.93;;
4738;SDS011;2383;48.632;10.156;2023-12-20T07:25:53;3.17;;;2.40;;
4738;SDS011;2383;48.632;10.156;2023-12-20T07:29:55;1.47;;;0.90;;
4738;SDS011;2383;48.632;10.156;2023-12-20T07:33:57;2.30;;;1.57;;
4738;SDS011;2383;48.632;10.156;2023-12-20T07:37:59;0.70;;;0.70;;
4738;SDS011;2383;48.632;10.156;2023-12-20T07:42:01;1.30;;;1.20;;
4738;SDS011;2383;48.632;10.156;2023-12-20T07:46:04;0.67;;;0.67;;
4738;SDS011;2383;48.632;10.156;2023-12-20T07:50:08;1.07;;;1.07;;
4738;SDS011;2383;48.632;10.156;2023-12-20T07:54:12;0.80;;;0.80;;
4738;SDS011;2383;48.632;10.156;2023-12-20T07:58:13;2.20;;;2.10;;
4738;SDS011;2383;48.632;10.156;2023-12-20T08:02:16;0.73;;;0.73;;
4738;SDS011;2383;48.632;10.156;2023-12-20T08:06:18;0.70;;;0.70;;
4738;SDS011;2383;48.632;10.156;2023-12-20T08:10:20;1.47;;;1.10;;
4738;SDS011;2383;48.632;10.156;2023-12-20T08:14:22;1.60;;;1.50;;
4738;SDS011;2383;48.632;10.156;2023-12-20T08:18:24;1.60;;;1.00;;
4738;SDS011;2383;48.632;10.156;2023-12-20T08:22:26;1.70;;;1.60;;
4738;SDS011;2383;48.632;10.156;2023-12-20T08:26:28;1.43;;;0.97;;
4738;SDS011;2383;48.632;10.156;2023-12-20T08:30:30;1.80;;;1.70;;
4738;SDS011;2383;48.632;10.156;2023-12-20T08:34:33;2.50;;;2.37;;
4738;SDS011;2383;48.632;10.156;2023-12-20T08:38:35;1.33;;;1.23;;
4738;SDS011;2383;48.632;10.156;2023-12-20T08:42:37;1.80;;;1.50;;
4738;SDS011;2383;48.632;10.156;2023-12-20T08:46:40;5.07;;;4.63;;
4738;SDS011;2383;48.632;10.156;2023-12-20T08:50:41;1.00;;;1.00;;
4738;SDS011;2383;48.632;10.156;2023-12-20T08:54:44;1.70;;;1.60;;
4738;SDS011;2383;48.632;10.156;2023-12-20T08:58:46;1.30;;;1.20;;
4738;SDS011;2383;48.632;10.156;2023-12-20T09:02:48;0.70;;;0.70;;
4738;SDS011;2383;48.632;10.156;2023-12-20T09:06:50;1.10;;;1.03;;
4738;SDS011;2383;48.632;10.156;2023-12-20T09:10:52;1.33;;;1.10;;
4738;SDS011;2383;48.632;10.156;2023-12-20T09:14:55;1.27;;;1.17;;
4738;SDS011;2383;48.632;10.156;2023-12-20T09:18:57;1.20;;;1.10;;
4738;SDS011;2383;48.632;10.156;2023-12-20T09:22:59;1.23;;;1.20;;
4738;SDS011;2383;48.632;10.156;2023-12-20T09:27:01;1.60;;;1.50;;
4738;SDS011;2383;48.632;10.156;2023-12-20T09:31:04;2.27;;;1.90;;
4738;SDS011;2383;48.632;10.156;2023-12-20T09:35:07;4.20;;;2.80;;
4738;SDS011;2383;48.632;10.156;2023-12-20T09:39:10;2.57;;;2.37;;
4738;SDS011;2383;48.632;10.156;2023-12-20T09:43:13;2.53;;;2.33;;
4738;SDS011;2383;48.632;10.156;2023-12-20T09:47:19;3.30;;;3.00;;
4738;SDS011;2383;48.632;10.156;2023-12-20T09:51:25;3.67;;;2.87;;
4738;SDS011;2383;48.632;10.156;2023-12-20T09:55:28;3.00;;;2.70;;
4738;SDS011;2383;48.632;10.156;2023-12-20T09:59:33;3.20;;;2.60;;
4738;SDS011;2383;48.632;10.156;2023-12-20T10:03:35;3.40;;;2.40;;
4738;SDS011;2383;48.632;10.156;2023-12-20T10:07:41;2.60;;;2.40;;
4738;SDS011;2383;48.632;10.156;2023-12-20T10:11:44;3.73;;;2.30;;
4738;SDS011;2383;48.632;10.156;2023-12-20T10:15:46;3.70;;;2.63;;
4738;SDS011;2383;48.632;10.156;2023-12-20T10:19:48;3.67;;;2.47;;
4738;SDS011;2383;48.632;10.156;2023-12-20T10:23:50;3.20;;;2.50;;
4738;SDS011;2383;48.632;10.156;2023-12-20T10:28:13;3.77;;;2.60;;
4738;SDS011;2383;48.632;10.156;2023-12-20T10:32:25;3.20;;;2.63;;
4738;SDS011;2383;48.632;10.156;2023-12-20T10:36:28;5.67;;;2.80;;
4738;SDS011;2383;48.632;10.156;2023-12-20T10:40:36;4.90;;;2.90;;
4738;SDS011;2383;48.632;10.156;2023-12-20T10:44:39;3.97;;;2.80;;
4738;SDS011;2383;48.632;10.156;2023-12-20T10:48:41;3.33;;;3.00;;
4738;SDS011;2383;48.632;10.156;2023-12-20T10:52:46;3.33;;;2.63;;
4738;SDS011;2383;48.632;10.156;2023-12-20T10:56:49;4.00;;;3.20;;
4738;SDS011;2383;48.632;10.156;2023-12-20T11:00:56;3.33;;;2.33;;
4738;SDS011;2383;48.632;10.156;2023-12-20T11:05:40;6.60;;;2.30;;
4738;SDS011;2383;48.632;10.156;2023-12-20T11:09:36;3.80;;;2.43;;
4738;SDS011;2383;48.632;10.156;2023-12-20T11:13:56;5.40;;;2.93;;
4738;SDS011;2383;48.632;10.156;2023-12-20T11:18:03;5.60;;;2.67;;
4738;SDS011;2383;48.632;10.156;2023-12-20T11:22:06;3.70;;;2.80;;
4738;SDS011;2383;48.632;10.156;2023-12-20T11:26:08;8.30;;;4.07;;
4738;SDS011;2383;48.632;10.156;2023-12-20T11:30:11;7.60;;;3.37;;
4738;SDS011;2383;48.632;10.156;2023-12-20T11:34:15;6.70;;;2.70;;
4738;SDS011;2383;48.632;10.156;2023-12-20T11:38:22;4.93;;;2.60;;
4738;SDS011;2383;48.632;10.156;2023-12-20T11:42:24;13.13;;;7.10;;
4738;SDS011;2383;48.632;10.156;2023-12-20T11:46:26;8.13;;;3.30;;
4738;SDS011;2383;48.632;10.156;2023-12-20T11:50:28;7.10;;;2.23;;
4738;SDS011;2383;48.632;10.156;2023-12-20T11:54:32;15.57;;;3.90;;
4738;SDS011;2383;48.632;10.156;2023-12-20T11:58:34;5.23;;;2.20;;
4738;SDS011;2383;48.632;10.156;2023-12-20T12:02:36;5.13;;;2.00;;
4738;SDS011;2383;48.632;10.156;2023-12-20T12:06:38;5.60;;;2.07;;
4738;SDS011;2383;48.632;10.156;2023-12-20T12:10:41;10.33;;;2.40;;
4738;SDS011;2383;48.632;10.156;2023-12-20T12:14:44;6.60;;;2.43;;
4738;SDS011;2383;48.632;10.156;2023-12-20T12:18:54;2.83;;;1.70;;
4738;SDS011;2383;48.632;10.156;2023-12-20T12:23:03;7.40;;;2.43;;
4738;SDS011;2383;48.632;10.156;2023-12-20T12:27:06;8.27;;;2.47;;
4738;SDS011;2383;48.632;10.156;2023-12-20T12:31:09;6.77;;;2.37;;
4738;SDS011;2383;48.632;10.156;2023-12-20T12:35:16;4.33;;;2.30;;
4738;SDS011;2383;48.632;10.156;2023-12-20T12:39:19;4.90;;;2.10;;
4738;SDS011;2383;48.632;10.156;2023-12-20T12:43:21;3.10;;;1.70;;
4738;SDS011;2383;48.632;10.156;2023-12-20T12:47:24;6.87;;;2.80;;
4738;SDS011;2383;48.632;10.156;2023-12-20T12:51:26;12.63;;;5.60;;
4738;SDS011;2383;48.632;10.156;2023-12-20T12:55:28;2.90;;;1.93;;
4738;SDS011;2383;48.632;10.156;2023-12-20T12:59:30;5.67;;;2.00;;
4738;SDS011;2383;48.632;10.156;2023-12-20T13:03:32;6.70;;;2.70;;
4738;SDS011;2383;48.632;10.156;2023-12-20T13:07:35;5.83;;;2.10;;
4738;SDS011;2383;48.632;10.156;2023-12-20T13:11:39;5.77;;;3.00;;
4738;SDS011;2383;48.632;10.156;2023-12-20T13:15:41;8.83;;;1.70;;
4738;SDS011;2383;48.632;10.156;2023-12-20T13:19:43;5.63;;;1.80;;
4738;SDS011;2383;48.632;10.156;2023-12-20T13:23:45;10.80;;;2.90;;
4738;SDS011;2383;48.632;10.156;2023-12-20T13:27:47;5.73;;;2.03;;
4738;SDS011;2383;48.632;10.156;2023-12-20T13:31:49;7.73;;;2.67;;
4738;SDS011;2383;48.632;10.156;2023-12-20T13:35:52;13.40;;;7.03;;
4738;SDS011;2383;48.632;10.156;2023-12-20T13:39:54;8.40;;;2.73;;
4738;SDS011;2383;48.632;10.156;2023-12-20T13:43:56;5.60;;;1.87;;
4738;SDS011;2383;48.632;10.156;2023-12-20T13:47:58;10.43;;;6.60;;
4738;SDS011;2383;48.632;10.156;2023-12-20T13:52:00;5.37;;;2.10;;
4738;SDS011;2383;48.632;10.156;2023-12-20T13:56:02;5.00;;;1.87;;
4738;SDS011;2383;48.632;10.156;2023-12-20T14:00:05;6.93;;;2.43;;
4738;SDS011;2383;48.632;10.156;2023-12-20T14:04:07;13.03;;;2.70;;
4738;SDS011;2383;48.632;10.156;2023-12-20T14:08:09;6.53;;;3.80;;
4738;SDS011;2383;48.632;10.156;2023-12-20T14:12:15;6.30;;;2.43;;
4738;SDS011;2383;48.632;10.156;2023-12-20T14:16:16;5.63;;;2.00;;
4738;SDS011;2383;48.632;10.156;2023-12-20T14:20:18;5.17;;;2.20;;
4738;SDS011;2383;48.632;10.156;2023-12-20T14:24:20;2.47;;;1.60;;
4738;SDS011;2383;48.632;10.156;2023-12-20T14:28:22;3.87;;;1.83;;
4738;SDS011;2383;48.632;10.156;2023-12-20T14:32:24;8.33;;;1.87;;
4738;SDS011;2383;48.632;10.156;2023-12-20T14:36:28;4.90;;;1.83;;
4738;SDS011;2383;48.632;10.156;2023-12-20T14:40:32;1.87;;;1.20;;
4738;SDS011;2383;48.632;10.156;2023-12-20T14:44:34;4.50;;;1.57;;
4738;SDS011;2383;48.632;10.156;2023-12-20T14:48:36;5.00;;;1.97;;
4738;SDS011;2383;48.632;10.156;2023-12-20T14:52:38;4.57;;;1.80;;
4738;SDS011;2383;48.632;10.156;2023-12-20T14:56:40;6.10;;;1.87;;
4738;SDS011;2383;48.632;10.156;2023-12-20T15:00:42;3.53;;;1.63;;
4738;SDS011;2383;48.632;10.156;2023-12-20T15:04:46;5.93;;;1.73;;
4738;SDS011;2383;48.632;10.156;2023-12-20T15:08:48;6.43;;;2.43;;
4738;SDS011;2383;48.632;10.156;2023-12-20T15:12:50;4.20;;;1.60;;
4738;SDS011;2383;48.632;10.156;2023-12-20T15:16:53;3.23;;;1.70;;
4738;SDS011;2383;48.632;10.156;2023-12-20T15:20:56;7.63;;;2.10;;
4738;SDS011;2383;48.632;10.156;2023-12-20T15:24:58;5.13;;;2.00;;
4738;SDS011;2383;48.632;10.156;2023-12-20T15:29:00;2.70;;;1.77;;
4738;SDS011;2383;48.632;10.156;2023-12-20T15:33:02;4.67;;;1.83;;
4738;SDS011;2383;48.632;10.156;2023-12-20T15:37:08;5.17;;;1.93;;
4738;SDS011;2383;48.632;10.156;2023-12-20T15:41:17;7.30;;;2.63;;
4738;SDS011;2383;48.632;10.156;2023-12-20T15:45:22;4.40;;;1.80;;
4738;SDS011;2383;48.632;10.156;2023-12-20T15:49:24;6.77;;;2.70;;
4738;SDS011;2383;48.632;10.156;2023-12-20T15:53:27;4.73;;;2.40;;
4738;SDS011;2383;48.632;10.156;2023-12-20T15:57:29;7.13;;;2.90;;
4738;SDS011;2383;48.632;10.156;2023-12-20T16:01:49;10.67;;;2.90;;
4738;SDS011;2383;48.632;10.156;2023-12-20T16:05:55;8.40;;;3.30;;
4738;SDS011;2383;48.632;10.156;2023-12-20T16:09:57;6.83;;;2.60;;
4738;SDS011;2383;48.632;10.156;2023-12-20T16:13:59;4.67;;;2.00;;
4738;SDS011;2383;48.632;10.156;2023-12-20T16:18:01;7.97;;;2.43;;
4738;SDS011;2383;48.632;10.156;2023-12-20T16:22:03;7.40;;;2.60;;
4738;SDS011;2383;48.632;10.156;2023-12-20T16:26:07;6.80;;;2.13;;
4738;SDS011;2383;48.632;10.156;2023-12-20T16:30:09;5.83;;;2.00;;
4738;SDS011;2383;48.632;10.156;2023-12-20T16:34:11;4.90;;;2.00;;
4738;SDS011;2383;48.632;10.156;2023-12-20T16:38:13;5.23;;;1.70;;
4738;SDS011;2383;48.632;10.156;2023-12-20T16:42:15;4.40;;;2.23;;
4738;SDS011;2383;48.632;10.156;2023-12-20T16:46:18;5.57;;;1.90;;
4738;SDS011;2383;48.632;10.156;2023-12-20T16:50:20;5.60;;;1.80;;
4738;SDS011;2383;48.632;10.156;2023-12-20T16:54:22;4.47;;;1.73;;
4738;SDS011;2383;48.632;10.156;2023-12-20T16:58:24;4.33;;;1.70;;
4738;SDS011;2383;48.632;10.156;2023-12-20T17:02:26;4.00;;;1.70;;
4738;SDS011;2383;48.632;10.156;2023-12-20T17:06:28;7.87;;;1.97;;
4738;SDS011;2383;48.632;10.156;2023-12-20T17:10:30;5.33;;;2.10;;
4738;SDS011;2383;48.632;10.156;2023-12-20T17:14:32;4.57;;;2.20;;
4738;SDS011;2383;48.632;10.156;2023-12-20T17:18:34;5.60;;;3.13;;
4738;SDS011;2383;48.632;10.156;2023-12-20T17:22:36;5.90;;;3.80;;
4738;SDS011;2383;48.632;10.156;2023-12-20T17:26:38;6.93;;;2.73;;
4738;SDS011;2383;48.632;10.156;2023-12-20T17:30:40;7.57;;;3.37;;
4738;SDS011;2383;48.632;10.156;2023-12-20T17:34:45;5.40;;;2.10;;
4738;SDS011;2383;48.632;10.156;2023-12-20T17:38:47;4.07;;;2.27;;
4738;SDS011;2383;48.632;10.156;2023-12-20T17:42:49;3.33;;;2.63;;
4738;SDS011;2383;48.632;10.156;2023-12-20T17:46:51;6.33;;;2.10;;
4738;SDS011;2383;48.632;10.156;2023-12-20T17:50:54;4.93;;;1.80;;
4738;SDS011;2383;48.632;10.156;2023-12-20T17:54:57;4.53;;;1.63;;
4738;SDS011;2383;48.632;10.156;2023-12-20T17:58:58;3.37;;;1.70;;
4738;SDS011;2383;48.632;10.156;2023-12-20T18:03:01;2.17;;;1.20;;
4738;SDS011;2383;48.632;10.156;2023-12-20T18:07:03;2.17;;;1.33;;
4738;SDS011;2383;48.632;10.156;2023-12-20T18:11:05;2.00;;;1.50;;
4738;SDS011;2383;48.632;10.156;2023-12-20T18:15:07;3.23;;;1.37;;
4738;SDS011;2383;48.632;10.156;2023-12-20T18:19:10;5.23;;;1.70;;
4738;SDS011;2383;48.632;10.156;2023-12-20T18:23:13;2.77;;;1.63;;
4738;SDS011;2383;48.632;10.156;2023-12-20T18:27:14;2.70;;;1.40;;
4738;SDS011;2383;48.632;10.156;2023-12-20T18:31:17;3.17;;;1.33;;
4738;SDS011;2383;48.632;10.156;2023-12-20T18:35:19;4.23;;;1.57;;
4738;SDS011;2383;48.632;10.156;2023-12-20T18:39:21;4.00;;;1.60;;
4738;SDS011;2383;48.632;10.156;2023-12-20T18:43:23;5.10;;;1.60;;
4738;SDS011;2383;48.632;10.156;2023-12-20T18:47:27;5.87;;;1.70;;
4738;SDS011;2383;48.632;10.156;2023-12-20T18:51:29;2.13;;;1.30;;
4738;SDS011;2383;48.632;10.156;2023-12-20T18:55:30;3.17;;;1.90;;
4738;SDS011;2383;48.632;10.156;2023-12-20T18:59:33;2.93;;;1.40;;
4738;SDS011;2383;48.632;10.156;2023-12-20T19:03:35;3.00;;;1.33;;
4738;SDS011;2383;48.632;10.156;2023-12-20T19:07:37;2.43;;;1.60;;
4738;SDS011;2383;48.632;10.156;2023-12-20T19:11:40;4.40;;;1.90;;
4738;SDS011;2383;48.632;10.156;2023-12-20T19:15:42;4.07;;;1.63;;
4738;SDS011;2383;48.632;10.156;2023-12-20T19:19:47;3.00;;;1.60;;
4738;SDS011;2383;48.632;10.156;2023-12-20T19:23:50;3.87;;;2.07;;
4738;SDS011;2383;48.632;10.156;2023-12-20T19:27:51;6.87;;;2.20;;
4738;SDS011;2383;48.632;10.156;2023-12-20T19:31:53;4.67;;;2.70;;
4738;SDS011;2383;48.632;10.156;2023-12-20T19:35:55;5.83;;;2.03;;
4738;SDS011;2383;48.632;10.156;2023-12-20T19:39:57;5.17;;;2.30;;
4738;SDS011;2383;48.632;10.156;2023-12-20T19:44:00;5.13;;;2.50;;
4738;SDS011;2383;48.632;10.156;2023-12-20T19:48:04;4.80;;;2.03;;
4738;SDS011;2383;48.632;10.156;2023-12-20T19:52:06;6.87;;;2.20;;
4738;SDS011;2383;48.632;10.156;2023-12-20T19:56:08;6.03;;;2.30;;
4738;SDS011;2383;48.632;10.156;2023-12-20T20:00:10;6.10;;;2.73;;
4738;SDS011;2383;48.632;10.156;2023-12-20T20:04:13;9.80;;;4.87;;
4738;SDS011;2383;48.632;10.156;2023-12-20T20:08:19;6.17;;;2.90;;
4738;SDS011;2383;48.632;10.156;2023-12-20T20:12:21;10.10;;;4.00;;
4738;SDS011;2383;48.632;10.156;2023-12-20T20:16:23;6.57;;;3.57;;
4738;SDS011;2383;48.632;10.156;2023-12-20T20:20:26;6.03;;;3.00;;
4738;SDS011;2383;48.632;10.156;2023-12-20T20:24:28;5.87;;;2.80;;
4738;SDS011;2383;48.632;10.156;2023-12-20T20:28:31;4.90;;;2.73;;
4738;SDS011;2383;48.632;10.156;2023-12-20T20:32:33;3.63;;;2.27;;
4738;SDS011;2383;48.632;10.156;2023-12-20T20:36:35;6.57;;;1.93;;
4738;SDS011;2383;48.632;10.156;2023-12-20T20:40:38;6.13;;;2.07;;
4738;SDS011;2383;48.632;10.156;2023-12-20T20:44:40;4.60;;;1.90;;
4738;SDS011;2383;48.632;10.156;2023-12-20T20:48:42;3.87;;;1.70;;
4738;SDS011;2383;48.632;10.156;2023-12-20T20:52:52;5.67;;;3.00;;
4738;SDS011;2383;48.632;10.156;2023-12-20T20:56:54;5.47;;;4.13;;
4738;SDS011;2383;48.632;10.156;2023-12-20T21:00:56;14.20;;;11.20;;
4738;SDS011;2383;48.632;10.156;2023-12-20T21:04:58;5.53;;;1.90;;
4738;SDS011;2383;48.632;10.156;2023-12-20T21:09:00;7.13;;;2.20;;
4738;SDS011;2383;48.632;10.156;2023-12-20T21:13:02;3.17;;;2.87;;
4738;SDS011;2383;48.632;10.156;2023-12-20T21:17:04;3.70;;;1.70;;
4738;SDS011;2383;48.632;10.156;2023-12-20T21:21:06;5.03;;;2.47;;
4738;SDS011;2383;48.632;10.156;2023-12-20T21:25:08;6.43;;;5.90;;
4738;SDS011;2383;48.632;10.156;2023-12-20T21:29:11;3.43;;;1.93;;
4738;SDS011;2383;48.632;10.156;2023-12-20T21:33:13;6.17;;;2.80;;
4738;SDS011;2383;48.632;10.156;2023-12-20T21:37:15;3.67;;;2.10;;
4738;SDS011;2383;48.632;10.156;2023-12-20T21:41:20;3.67;;;1.80;;
4738;SDS011;2383;48.632;10.156;2023-12-20T21:45:24;2.27;;;1.60;;
4738;SDS011;2383;48.632;10.156;2023-12-20T21:49:26;3.33;;;1.97;;
4738;SDS011;2383;48.632;10.156;2023-12-20T21:53:28;3.90;;;2.13;;
4738;SDS011;2383;48.632;10.156;2023-12-20T21:57:30;4.07;;;2.00;;
4738;SDS011;2383;48.632;10.156;2023-12-20T22:01:32;3.60;;;1.70;;
4738;SDS011;2383;48.632;10.156;2023-12-20T22:05:34;5.00;;;1.83;;
4738;SDS011;2383;48.632;10.156;2023-12-20T22:09:42;3.57;;;1.90;;
4738;SDS011;2383;48.632;10.156;2023-12-20T22:13:44;3.40;;;1.80;;
4738;SDS011;2383;48.632;10.156;2023-12-20T22:17:46;2.93;;;1.80;;
4738;SDS011;2383;48.632;10.156;2023-12-20T22:21:48;4.33;;;1.93;;
4738;SDS011;2383;48.632;10.156;2023-12-20T22:25:50;2.80;;;1.57;;
4738;SDS011;2383;48.632;10.156;2023-12-20T22:29:52;3.97;;;1.87;;
4738;SDS011;2383;48.632;10.156;2023-12-20T22:33:54;4.90;;;2.17;;
4738;SDS011;2383;48.632;10.156;2023-12-20T22:37:56;5.37;;;2.00;;
4738;SDS011;2383;48.632;10.156;2023-12-20T22:41:58;8.53;;;2.03;;
4738;SDS011;2383;48.632;10.156;2023-12-20T22:46:00;3.97;;;1.70;;
4738;SDS011;2383;48.632;10.156;2023-12-20T22:50:05;4.20;;;1.53;;
4738;SDS011;2383;48.632;10.156;2023-12-20T22:54:07;4.00;;;1.47;;
4738;SDS011;2383;48.632;10.156;2023-12-20T22:58:10;4.57;;;2.10;;
4738;SDS011;2383;48.632;10.156;2023-12-20T23:02:12;3.50;;;1.70;;
4738;SDS011;2383;48.632;10.156;2023-12-20T23:06:15;6.57;;;1.60;;
4738;SDS011;2383;48.632;10.156;2023-12-20T23:10:17;4.77;;;1.83;;
4738;SDS011;2383;48.632;10.156;2023-12-20T23:14:24;5.40;;;2.17;;
4738;SDS011;2383;48.632;10.156;2023-12-20T23:18:26;3.77;;;1.90;;
4738;SDS011;2383;48.632;10.156;2023-12-20T23:22:27;4.27;;;2.07;;
4738;SDS011;2383;48.632;10.156;2023-12-20T23:26:29;4.63;;;1.77;;
4738;SDS011;2383;48.632;10.156;2023-12-20T23:30:32;3.47;;;1.77;;
4738;SDS011;2383;48.632;10.156;2023-12-20T23:34:34;1.97;;;1.60;;
4738;SDS011;2383;48.632;10.156;2023-12-20T23:38:36;4.97;;;1.47;;
4738;SDS011;2383;48.632;10.156;2023-12-20T23:42:38;2.00;;;1.40;;
4738;SDS011;2383;48.632;10.156;2023-12-20T23:46:40;1.80;;;1.30;;
4738;SDS011;2383;48.632;10.156;2023-12-20T23:50:42;4.33;;;1.77;;
4738;SDS011;2383;48.632;10.156;2023-12-20T23:54:44;6.97;;;2.03;;
4738;SDS011;2383;48.632;10.156;2023-12-20T23:58:46;4.53;;;1.67;;
